Time;durP1;ratioP1;P1;durP2;ratioP2;P2;SDS_P1;SDS_P2;PMS_P1;PMS_P2;Temp;Humidity;BMP_temperature;BMP_pressure;BME280_temperature;BME280_humidity;BME280_pressure;Samples;Min_cycle;Max_cycle;Signal;HPM_P1;HPM_P2
2022/11/28 00:00:56;;;;;;;15.43;10.77;;;;;;;4.31;74.49;95190.06;4145050;28;20061;-50
2022/11/28 00:02:58;;;;;;;15.25;11.05;;;;;;;4.30;75.04;95196.19;4154440;28;20356;-49
2022/11/28 00:05:00;;;;;;;15.10;10.65;;;;;;;4.28;74.50;95192.88;4161124;28;20068;-55
2022/11/28 00:07:02;;;;;;;15.40;10.85;;;;;;;4.29;74.15;95197.13;4177001;28;20076;-54
2022/11/28 00:09:04;;;;;;;14.98;10.82;;;;;;;4.25;74.68;95190.47;4170405;28;20053;-51
2022/11/28 00:11:11;;;;;;;17.13;11.38;;;;;;;4.31;74.63;95187.47;4154678;28;20123;-50
2022/11/28 00:13:13;;;;;;;14.98;11.95;;;;;;;4.33;74.81;95183.94;4152535;28;20536;-49
2022/11/28 00:15:14;;;;;;;14.70;11.52;;;;;;;4.26;74.96;95184.38;4144285;28;20058;-53
2022/11/28 00:17:16;;;;;;;14.90;11.57;;;;;;;4.18;74.34;95188.44;4152889;28;20111;-54
2022/11/28 00:19:18;;;;;;;14.07;10.90;;;;;;;4.10;75.14;95189.78;4161257;28;20057;-57
2022/11/28 00:21:20;;;;;;;14.75;11.10;;;;;;;4.01;75.52;95193.03;4160754;28;20052;-52
2022/11/28 00:23:22;;;;;;;13.25;10.32;;;;;;;3.83;75.70;95189.13;4160715;28;20056;-54
2022/11/28 00:25:24;;;;;;;16.13;12.18;;;;;;;3.63;76.02;95193.91;4160881;28;20057;-52
2022/11/28 00:27:25;;;;;;;15.93;11.73;;;;;;;3.63;76.67;95196.50;4148658;28;20104;-53
2022/11/28 00:29:27;;;;;;;15.95;11.82;;;;;;;3.66;76.62;95190.31;4158815;28;20083;-53
2022/11/28 00:31:31;;;;;;;15.13;11.48;;;;;;;3.69;76.77;95190.09;4160347;28;20479;-52
2022/11/28 00:33:33;;;;;;;16.48;11.18;;;;;;;3.58;76.18;95183.03;4150668;28;20494;-52
2022/11/28 00:35:35;;;;;;;15.05;10.75;;;;;;;3.42;76.85;95190.19;4144781;28;20073;-53
2022/11/28 00:37:37;;;;;;;15.13;11.73;;;;;;;3.27;77.50;95190.31;4148090;28;20053;-49
2022/11/28 00:39:38;;;;;;;14.95;10.80;;;;;;;3.26;77.47;95195.56;4160433;28;20145;-52
2022/11/28 00:41:40;;;;;;;17.63;11.23;;;;;;;3.34;78.29;95188.13;4150481;28;20096;-52
2022/11/28 00:43:44;;;;;;;13.02;9.77;;;;;;;3.41;77.77;95193.72;4157016;28;20053;-54
2022/11/28 00:45:45;;;;;;;13.45;10.52;;;;;;;3.38;77.68;95188.75;4160675;28;20469;-53
2022/11/28 00:47:48;;;;;;;11.80;10.35;;;;;;;3.42;77.75;95191.03;4154759;28;20054;-55
2022/11/28 00:49:49;;;;;;;13.00;9.20;;;;;;;3.44;77.80;95196.94;4148142;28;20066;-51
2022/11/28 00:51:51;;;;;;;13.02;9.98;;;;;;;3.34;77.39;95192.50;4162730;28;20529;-53
2022/11/28 00:53:54;;;;;;;12.68;9.60;;;;;;;3.35;77.62;95186.34;4163294;28;20053;-53
2022/11/28 00:55:56;;;;;;;11.90;9.97;;;;;;;3.40;78.12;95185.13;4178759;28;20080;-53
2022/11/28 00:57:57;;;;;;;11.57;8.80;;;;;;;3.46;77.38;95189.03;4175713;28;20061;-52
2022/11/28 00:59:59;;;;;;;12.73;9.57;;;;;;;3.45;77.30;95183.03;4179725;28;20067;-53
2022/11/28 01:02:01;;;;;;;11.30;9.13;;;;;;;3.45;77.25;95192.59;4179388;28;20051;-53
2022/11/28 01:04:06;;;;;;;13.02;9.23;;;;;;;3.51;76.86;95179.22;4158834;28;20061;-51
2022/11/28 01:06:08;;;;;;;12.63;9.13;;;;;;;3.56;77.54;95184.91;4166038;28;20049;-53
2022/11/28 01:08:10;;;;;;;12.50;8.32;;;;;;;3.54;76.62;95185.94;4179641;28;20076;-49
2022/11/28 01:10:12;;;;;;;10.68;8.40;;;;;;;3.47;76.86;95182.94;4160193;28;20057;-53
2022/11/28 01:12:14;;;;;;;10.00;7.95;;;;;;;3.53;77.05;95179.94;4158944;28;20076;-53
2022/11/28 01:14:18;;;;;;;10.43;7.93;;;;;;;3.47;76.81;95182.94;4158365;28;20111;-56
2022/11/28 01:16:25;;;;;;;;;;;;;;;3.46;76.20;95183.88;4145484;28;20050;-53
2022/11/28 01:18:27;;;;;;;9.60;7.40;;;;;;;3.44;77.16;95184.00;4155214;28;20006;-54
2022/11/28 01:20:29;;;;;;;9.45;7.50;;;;;;;3.39;77.09;95180.88;4170741;28;20160;-51
2022/11/28 01:22:31;;;;;;;8.43;6.78;;;;;;;3.39;77.14;95182.63;4174002;28;20053;-53
2022/11/28 01:24:32;;;;;;;8.50;6.93;;;;;;;3.42;77.53;95182.41;4177608;28;20056;-55
2022/11/28 01:26:37;;;;;;;9.88;7.55;;;;;;;3.49;77.30;95186.25;4178748;28;20412;-52
2022/11/28 01:28:38;;;;;;;9.25;7.38;;;;;;;3.49;76.83;95181.09;4154906;28;20060;-51
2022/11/28 01:30:40;;;;;;;9.02;6.95;;;;;;;3.55;76.65;95180.66;4162044;28;20133;-53
2022/11/28 01:32:41;;;;;;;8.70;6.60;;;;;;;3.57;76.22;95178.81;4163530;28;20046;-53
2022/11/28 01:34:43;;;;;;;9.27;7.00;;;;;;;3.47;76.15;95172.59;4163675;28;20136;-53
2022/11/28 01:36:45;;;;;;;8.75;6.78;;;;;;;3.34;76.34;95179.53;4179691;28;20661;-48
2022/11/28 01:38:47;;;;;;;8.13;6.20;;;;;;;3.33;76.98;95167.50;4167059;28;20053;-50
2022/11/28 01:40:49;;;;;;;11.30;7.18;;;;;;;3.37;76.94;95174.97;4178907;28;20063;-50
2022/11/28 01:42:51;;;;;;;8.38;7.13;;;;;;;3.40;76.80;95166.16;4172307;28;20081;-54
2022/11/28 01:44:52;;;;;;;10.23;7.15;;;;;;;3.21;76.74;95162.22;4162251;28;20478;-50
2022/11/28 01:46:54;;;;;;;8.82;7.43;;;;;;;3.16;77.21;95166.91;4163171;28;20103;-48
2022/11/28 01:49:00;;;;;;;10.25;7.78;;;;;;;3.21;77.29;95169.16;4162707;28;20057;-52
2022/11/28 01:51:05;;;;;;;10.55;7.68;;;;;;;3.28;77.47;95160.88;4154195;28;20426;-52
2022/11/28 01:53:08;;;;;;;10.05;7.85;;;;;;;3.35;77.06;95155.28;4174046;28;20154;-49
2022/11/28 01:55:11;;;;;;;10.93;7.75;;;;;;;3.38;76.77;95155.91;4172811;28;20195;-53
2022/11/28 01:57:19;;;;;;;9.10;7.25;;;;;;;3.40;76.60;95158.38;4181232;28;20060;-53
2022/11/28 01:59:22;;;;;;;9.48;7.25;;;;;;;3.47;76.94;95157.03;4184062;28;20045;-53
2022/11/28 02:01:24;;;;;;;9.77;7.10;;;;;;;3.55;76.70;95153.91;4186514;28;20117;-52
2022/11/28 02:03:32;;;;;;;9.18;6.72;;;;;;;3.55;75.53;95157.34;4180871;28;20050;-53
2022/11/28 02:05:34;;;;;;;9.43;6.85;;;;;;;3.55;76.30;95154.78;4174899;28;20040;-53
2022/11/28 02:07:36;;;;;;;9.00;6.53;;;;;;;3.63;76.37;95149.03;4166189;28;20149;-53
2022/11/28 02:09:38;;;;;;;8.77;6.90;;;;;;;3.64;75.32;95150.72;4160290;28;20200;-55
2022/11/28 02:12:08;;;;;;;9.10;6.80;;;;;;;3.62;75.80;95150.81;4168860;28;20049;-54
2022/11/28 02:14:41;;;;;;;9.57;6.97;;;;;;;3.62;75.95;95145.63;4176391;28;20075;-55
2022/11/28 02:16:54;;;;;;;7.93;6.18;;;;;;;3.61;75.64;95143.97;4165824;28;20083;-51
2022/11/28 02:19:34;;;;;;;8.35;6.60;;;;;;;3.63;75.49;95142.09;4172815;28;20060;-56
2022/11/28 02:22:10;;;;;;;7.90;6.57;;;;;;;3.63;75.24;95139.50;4161558;28;20701;-54
2022/11/28 02:24:18;;;;;;;8.05;5.93;;;;;;;3.66;75.69;95144.50;4153116;28;20045;-50
2022/11/28 02:27:11;;;;;;;8.98;6.55;;;;;;;3.64;75.49;95145.53;4164838;28;20485;-57
2022/11/28 02:29:25;;;;;;;8.70;6.20;;;;;;;3.68;74.91;95142.63;4163778;28;20374;-55
2022/11/28 02:32:04;;;;;;;7.55;5.72;;;;;;;3.70;75.29;95145.13;4166371;28;20515;-54
2022/11/28 02:34:13;;;;;;;7.63;5.32;;;;;;;3.69;74.58;95141.66;4167915;28;20138;-53
2022/11/28 02:36:28;;;;;;;8.43;5.82;;;;;;;3.65;75.35;95142.81;4169919;28;20053;-54
2022/11/28 02:38:54;;;;;;;7.63;6.03;;;;;;;3.62;74.85;95137.03;4155600;28;20049;-54
2022/11/28 02:41:14;;;;;;;8.15;6.32;;;;;;;3.63;75.21;95142.09;4164684;28;20381;-54
2022/11/28 02:43:28;;;;;;;8.23;5.93;;;;;;;3.58;74.80;95146.78;4161293;28;20095;-52
2022/11/28 02:45:42;;;;;;;8.07;6.13;;;;;;;3.58;75.22;95143.34;4157974;28;20128;-56
2022/11/28 02:47:52;;;;;;;7.32;6.13;;;;;;;3.57;75.36;95142.53;4161121;28;20118;-50
2022/11/28 02:49:57;;;;;;;7.28;5.70;;;;;;;3.54;75.71;95140.16;4169518;28;20080;-54
2022/11/28 02:52:04;;;;;;;7.60;5.63;;;;;;;3.58;75.09;95143.34;4151180;28;20072;-56
2022/11/28 02:54:08;;;;;;;7.30;5.68;;;;;;;3.51;75.62;95152.47;4151500;28;20103;-54
2022/11/28 02:56:11;;;;;;;7.30;5.50;;;;;;;3.52;75.92;95152.38;4162141;28;20050;-51
2022/11/28 02:58:12;;;;;;;8.07;5.57;;;;;;;3.58;75.96;95148.53;4154035;28;20129;-58
2022/11/28 03:00:28;;;;;;;7.40;5.75;;;;;;;3.64;75.50;95151.53;4147313;28;20112;-55
2022/11/28 03:02:31;;;;;;;7.97;5.90;;;;;;;3.68;75.03;95145.22;4145794;28;20613;-55
2022/11/28 03:05:17;;;;;;;7.20;5.50;;;;;;;3.73;75.10;95154.44;4154563;28;20128;-53
2022/11/28 03:07:27;;;;;;;8.93;5.78;;;;;;;3.66;74.78;95151.44;4166322;28;20061;-53
2022/11/28 03:09:35;;;;;;;6.63;5.32;;;;;;;3.65;75.34;95145.41;4174613;28;20121;-55
2022/11/28 03:12:20;;;;;;;7.30;5.75;;;;;;;3.71;74.80;95140.75;4171942;28;20084;-54
2022/11/28 03:14:28;;;;;;;7.25;5.75;;;;;;;3.67;74.88;95146.13;4131006;28;20057;-57
2022/11/28 03:16:34;;;;;;;7.72;5.47;;;;;;;3.69;74.92;95151.22;4175045;28;20084;-54
2022/11/28 03:18:58;;;;;;;8.07;5.93;;;;;;;3.72;74.92;95155.34;4175348;28;20076;-55
2022/11/28 03:21:10;;;;;;;6.88;5.53;;;;;;;3.72;74.77;95150.16;4175435;28;20103;-54
2022/11/28 03:23:16;;;;;;;7.18;5.65;;;;;;;3.74;74.55;95153.47;4151656;28;20080;-55
2022/11/28 03:25:39;;;;;;;7.10;5.43;;;;;;;3.72;75.17;95155.34;4150858;28;20220;-51
2022/11/28 03:27:52;;;;;;;6.55;5.22;;;;;;;3.74;75.10;95151.72;4167868;28;20060;-52
2022/11/28 03:29:59;;;;;;;7.10;5.87;;;;;;;3.73;74.58;95146.66;4159359;28;20057;-49
2022/11/28 03:32:07;;;;;;;6.38;5.25;;;;;;;3.76;74.86;95151.63;4142499;28;20046;-53
2022/11/28 03:34:13;;;;;;;6.43;5.20;;;;;;;3.79;74.94;95157.41;4134460;28;20455;-52
2022/11/28 03:36:18;;;;;;;6.40;5.10;;;;;;;3.77;74.83;95159.28;4158994;28;20171;-51
2022/11/28 03:38:27;;;;;;;6.05;4.90;;;;;;;3.79;74.82;95156.59;4139234;28;20064;-50
2022/11/28 03:40:39;;;;;;;6.07;4.90;;;;;;;3.85;74.63;95145.78;4162768;28;20091;-48
2022/11/28 03:42:43;;;;;;;5.72;4.40;;;;;;;3.86;74.86;95152.63;4160249;28;20639;-52
2022/11/28 03:45:00;;;;;;;6.22;5.03;;;;;;;3.85;74.37;95144.03;4171048;28;20056;-55
2022/11/28 03:47:04;;;;;;;5.93;4.53;;;;;;;3.84;74.59;95146.72;4152811;28;20069;-54
2022/11/28 03:49:06;;;;;;;;;;;;;;;3.82;74.61;95146.84;4164766;28;20071;-50
2022/11/28 03:51:15;;;;;;;4.93;4.07;;;;;;;3.81;74.40;95145.19;4159660;28;20400;-51
2022/11/28 03:53:26;;;;;;;5.03;4.28;;;;;;;3.79;74.84;95146.25;4149888;28;20386;-53
2022/11/28 03:55:35;;;;;;;5.93;5.03;;;;;;;3.70;74.37;95152.88;4167802;28;20071;-53
2022/11/28 03:57:52;;;;;;;5.05;4.53;;;;;;;3.63;75.48;95151.63;4175513;28;20067;-52
2022/11/28 03:59:54;;;;;;;5.38;4.13;;;;;;;3.55;75.23;95144.41;4153436;28;20076;-49
2022/11/28 04:02:39;;;;;;;6.32;4.45;;;;;;;3.52;76.18;95143.78;4175716;28;20524;-55
2022/11/28 04:05:00;;;;;;;;;;;;;;;3.57;75.66;95147.72;4130675;28;20053;-55
2022/11/28 04:07:33;;;;;;;5.65;4.78;;;;;;;3.63;75.53;95139.50;4161100;28;20364;-54
2022/11/28 04:09:49;;;;;;;6.50;4.55;;;;;;;3.68;75.89;95137.44;4134688;28;20053;-52
2022/11/28 04:11:55;;;;;;;5.00;4.07;;;;;;;3.66;75.36;95134.13;4164438;28;20593;-53
2022/11/28 04:14:04;;;;;;;5.90;4.85;;;;;;;3.68;75.76;95134.84;4174148;28;20448;-52
2022/11/28 04:16:35;;;;;;;6.05;4.70;;;;;;;3.69;75.66;95135.66;4175713;28;20454;-53
2022/11/28 04:19:02;;;;;;;5.07;4.18;;;;;;;3.69;75.42;95141.66;4176696;28;20053;-53
2022/11/28 04:21:15;;;;;;;5.90;4.95;;;;;;;3.73;75.68;95136.28;4157391;28;20053;-54
2022/11/28 04:23:19;;;;;;;5.00;4.03;;;;;;;3.77;76.03;95133.38;4176825;28;20056;-51
2022/11/28 04:25:22;;;;;;;4.78;3.70;;;;;;;3.77;75.38;95137.75;4175242;28;20139;-54
2022/11/28 04:27:31;;;;;;;4.95;3.70;;;;;;;3.80;75.40;95147.88;4175773;28;20045;-52
2022/11/28 04:29:37;;;;;;;4.55;3.83;;;;;;;3.80;75.49;95153.06;4163840;28;20050;-52
2022/11/28 04:31:40;;;;;;;5.20;3.58;;;;;;;3.84;75.58;95146.72;4158377;28;20180;-52
2022/11/28 04:33:43;;;;;;;6.55;4.20;;;;;;;3.89;75.38;95142.03;4154641;28;20046;-52
2022/11/28 04:35:49;;;;;;;5.53;4.13;;;;;;;3.92;75.08;95141.84;4152432;28;20051;-53
2022/11/28 04:37:52;;;;;;;4.45;3.42;;;;;;;3.92;75.00;95156.59;4155915;28;20701;-51
2022/11/28 04:39:55;;;;;;;4.13;3.37;;;;;;;3.90;74.93;95149.72;4163198;28;20104;-50
2022/11/28 04:42:01;;;;;;;4.82;3.58;;;;;;;3.88;74.91;95155.97;4175892;28;20282;-50
2022/11/28 04:44:13;;;;;;;4.03;3.53;;;;;;;3.88;75.07;95154.19;4167414;28;20083;-54
2022/11/28 04:46:23;;;;;;;3.70;3.05;;;;;;;3.86;75.06;95157.81;4164953;28;20053;-54
2022/11/28 04:48:26;;;;;;;4.70;3.53;;;;;;;3.89;74.53;95157.59;4174286;28;20115;-54
2022/11/28 04:51:03;;;;;;;3.90;3.25;;;;;;;3.90;74.60;95160.09;4174868;28;20045;-50
2022/11/28 04:53:14;;;;;;;3.80;3.33;;;;;;;3.90;74.59;95164.44;4175019;28;20141;-53
2022/11/28 04:55:19;;;;;;;3.85;3.00;;;;;;;3.88;75.01;95164.56;4174784;28;20060;-51
2022/11/28 04:57:27;;;;;;;3.80;3.00;;;;;;;3.84;74.70;95164.88;4176423;28;20053;-50
2022/11/28 04:59:30;;;;;;;3.75;3.10;;;;;;;3.84;75.40;95165.69;4173536;28;20049;-53
2022/11/28 05:01:32;;;;;;;5.82;4.18;;;;;;;3.86;74.83;95161.25;4176249;28;20507;-50
2022/11/28 05:03:34;;;;;;;3.90;3.00;;;;;;;3.85;75.53;95164.78;4173894;28;20270;-51
2022/11/28 05:05:50;;;;;;;4.00;3.05;;;;;;;3.85;74.87;95161.34;4173838;28;20133;-53
2022/11/28 05:07:52;;;;;;;2.88;2.58;;;;;;;3.75;74.89;95171.53;4174919;28;20052;-50
2022/11/28 05:09:54;;;;;;;3.75;2.95;;;;;;;3.65;75.48;95167.91;4175605;28;20159;-52
2022/11/28 05:11:56;;;;;;;3.40;2.65;;;;;;;3.69;75.59;95166.75;4161085;28;20056;-54
2022/11/28 05:13:57;;;;;;;3.60;2.70;;;;;;;3.67;74.83;95169.44;4170577;28;20079;-52
2022/11/28 05:16:00;;;;;;;3.70;3.05;;;;;;;3.68;75.61;95172.88;4175221;28;20055;-55
2022/11/28 05:18:02;;;;;;;3.38;3.03;;;;;;;3.65;75.46;95166.13;4176389;28;20792;-53
2022/11/28 05:20:05;;;;;;;4.20;3.17;;;;;;;3.67;75.52;95161.69;4175411;28;20103;-51
2022/11/28 05:22:07;;;;;;;3.97;3.00;;;;;;;3.64;76.09;95159.31;4174366;28;20045;-55
2022/11/28 05:24:09;;;;;;;5.50;2.88;;;;;;;3.66;75.90;95157.44;4175494;28;20146;-52
2022/11/28 05:26:16;;;;;;;4.45;3.47;;;;;;;3.68;76.21;95155.56;4175525;28;20053;-56
2022/11/28 05:28:18;;;;;;;5.50;3.80;;;;;;;3.61;75.34;95154.31;4160681;28;20851;-53
2022/11/28 05:30:20;;;;;;;3.40;2.88;;;;;;;3.58;75.47;95157.13;4174852;28;20048;-49
2022/11/28 05:32:21;;;;;;;4.65;3.55;;;;;;;3.64;76.45;95154.13;4175893;28;20063;-55
2022/11/28 05:34:23;;;;;;;4.38;3.28;;;;;;;3.70;76.24;95150.28;4178634;28;20130;-51
2022/11/28 05:36:25;;;;;;;5.05;3.40;;;;;;;3.75;75.84;95148.19;4177420;28;20064;-51
2022/11/28 05:38:26;;;;;;;4.78;3.35;;;;;;;3.82;75.17;95154.59;4168048;28;20054;-52
2022/11/28 05:40:28;;;;;;;4.72;3.38;;;;;;;3.86;75.46;95150.03;4167305;28;20559;-52
2022/11/28 05:42:34;;;;;;;4.63;3.65;;;;;;;3.91;75.27;95147.94;4174942;28;20122;-50
2022/11/28 05:44:36;;;;;;;5.20;3.85;;;;;;;3.92;75.10;95148.81;4162605;28;20413;-52
2022/11/28 05:46:37;;;;;;;5.28;3.85;;;;;;;3.96;74.85;95148.47;4162885;28;20053;-54
2022/11/28 05:48:39;;;;;;;5.60;4.00;;;;;;;3.99;74.96;95157.78;4163146;28;20054;-51
2022/11/28 05:50:41;;;;;;;4.13;3.47;;;;;;;3.99;74.87;95150.00;4150177;28;20356;-53
2022/11/28 05:52:43;;;;;;;3.85;3.33;;;;;;;4.02;75.17;95152.38;4156802;28;20112;-54
2022/11/28 05:54:45;;;;;;;5.40;3.78;;;;;;;4.04;75.33;95155.69;4146923;28;20057;-53
2022/11/28 05:56:46;;;;;;;4.43;3.45;;;;;;;4.03;74.51;95147.09;4147216;28;20459;-51
2022/11/28 05:58:49;;;;;;;6.28;3.67;;;;;;;3.99;73.83;95152.59;4145422;28;20053;-55
2022/11/28 06:00:50;;;;;;;6.00;3.85;;;;;;;3.95;74.16;95151.16;4147132;28;20129;-54
2022/11/28 06:02:52;;;;;;;6.63;4.03;;;;;;;3.93;74.47;95147.84;4152417;28;20143;-52
2022/11/28 06:05:01;;;;;;;5.75;4.45;;;;;;;3.96;74.91;95142.44;4176346;28;20500;-54
2022/11/28 06:07:23;;;;;;;5.47;4.20;;;;;;;3.83;73.73;95145.91;4178716;28;20106;-54
2022/11/28 06:09:24;;;;;;;4.95;3.22;;;;;;;3.72;73.85;95147.56;4178671;28;20068;-56
2022/11/28 06:11:28;;;;;;;4.57;3.78;;;;;;;3.69;74.63;95143.44;4169338;28;20485;-58
2022/11/28 06:13:30;;;;;;;5.25;4.10;;;;;;;3.71;74.93;95151.13;4155994;28;20409;-54
2022/11/28 06:15:32;;;;;;;4.95;3.88;;;;;;;3.73;74.81;95152.66;4154603;28;20069;-52
2022/11/28 06:17:39;;;;;;;4.72;3.80;;;;;;;3.71;74.85;95151.13;4162800;28;20057;-52
2022/11/28 06:19:40;;;;;;;6.47;4.30;;;;;;;3.68;74.65;95152.16;4152935;28;20501;-55
2022/11/28 06:21:42;;;;;;;6.80;4.40;;;;;;;3.72;75.21;95151.00;4165103;28;20052;-55
2022/11/28 06:23:45;;;;;;;5.35;4.38;;;;;;;3.80;74.65;95148.69;4166670;28;20076;-56
2022/11/28 06:25:46;;;;;;;6.30;4.13;;;;;;;3.85;74.94;95150.97;4178701;28;20063;-55
2022/11/28 06:27:48;;;;;;;6.20;4.38;;;;;;;3.87;74.56;95149.09;4178317;28;20077;-57
2022/11/28 06:29:50;;;;;;;5.30;4.43;;;;;;;3.89;74.91;95150.66;4177290;28;20482;-54
2022/11/28 06:31:51;;;;;;;7.60;4.85;;;;;;;3.90;74.50;95154.91;4179107;28;20423;-59
2022/11/28 06:33:53;;;;;;;6.35;4.85;;;;;;;3.95;74.06;95143.38;4178154;28;20045;-56
2022/11/28 06:36:03;;;;;;;6.50;4.53;;;;;;;3.99;74.41;95147.44;4178883;28;20139;-56
2022/11/28 06:38:05;;;;;;;6.60;4.88;;;;;;;3.89;73.78;95142.03;4169709;28;20139;-55
2022/11/28 06:40:14;;;;;;;7.32;4.60;;;;;;;3.87;74.68;95136.13;4166260;28;20478;-58
2022/11/28 06:42:17;;;;;;;7.03;5.05;;;;;;;3.89;74.71;95131.69;4167782;28;20141;-56
2022/11/28 06:44:18;;;;;;;6.18;4.65;;;;;;;3.94;74.21;95142.56;4170279;28;20080;-56
2022/11/28 06:46:20;;;;;;;7.03;4.90;;;;;;;3.96;74.69;95138.09;4177933;28;20081;-52
2022/11/28 06:48:23;;;;;;;6.78;5.20;;;;;;;3.83;74.52;95132.94;4176912;28;20081;-56
2022/11/28 06:50:24;;;;;;;7.55;5.75;;;;;;;3.83;75.08;95134.69;4172807;28;20049;-52
2022/11/28 06:52:26;;;;;;;6.68;5.07;;;;;;;3.84;74.79;95133.78;4151128;28;20081;-54
2022/11/28 06:54:28;;;;;;;6.82;5.18;;;;;;;3.85;75.06;95135.41;4145853;28;20077;-53
2022/11/28 06:56:29;;;;;;;7.28;5.72;;;;;;;3.88;75.02;95130.84;4149235;28;20061;-56
2022/11/28 06:58:31;;;;;;;6.93;5.13;;;;;;;3.78;74.52;95129.00;4160733;28;20778;-53
2022/11/28 07:00:33;;;;;;;8.00;5.78;;;;;;;3.69;74.98;95136.50;4151660;28;20124;-55
2022/11/28 07:02:35;;;;;;;9.27;5.60;;;;;;;3.63;75.13;95138.69;4146026;28;20140;-53
2022/11/28 07:04:37;;;;;;;7.80;5.70;;;;;;;3.54;76.43;95136.72;4162188;28;20662;-54
2022/11/28 07:06:39;;;;;;;8.18;5.95;;;;;;;3.47;76.59;95136.31;4154856;28;20062;-55
2022/11/28 07:08:41;;;;;;;10.23;5.95;;;;;;;3.55;76.68;95133.19;4145409;28;20522;-52
2022/11/28 07:10:43;;;;;;;7.45;6.20;;;;;;;3.50;76.12;95136.09;4157995;28;20442;-54
2022/11/28 07:12:45;;;;;;;8.35;6.03;;;;;;;3.53;76.31;95133.31;4175870;28;20092;-54
2022/11/28 07:14:46;;;;;;;9.40;6.55;;;;;;;3.35;76.55;95134.56;4169182;28;20490;-54
2022/11/28 07:16:48;;;;;;;9.52;6.28;;;;;;;3.38;76.57;95136.97;4172772;28;20053;-51
2022/11/28 07:18:51;;;;;;;8.57;6.13;;;;;;;3.30;76.49;95141.84;4175064;28;20511;-52
2022/11/28 07:20:52;;;;;;;9.35;6.78;;;;;;;3.33;76.73;95139.03;4178238;28;20178;-50
2022/11/28 07:22:54;;;;;;;10.77;6.72;;;;;;;3.41;76.99;95139.34;4169665;28;20077;-50
2022/11/28 07:24:56;;;;;;;8.98;6.50;;;;;;;3.42;76.68;95138.38;4172647;28;20061;-53
2022/11/28 07:26:57;;;;;;;9.20;7.40;;;;;;;3.42;76.82;95135.78;4176957;28;20080;-53
2022/11/28 07:28:59;;;;;;;12.23;8.07;;;;;;;3.51;76.81;95139.50;4175657;28;20048;-56
2022/11/28 07:31:04;;;;;;;10.63;8.18;;;;;;;3.47;76.78;95138.91;4176871;28;20087;-56
2022/11/28 07:33:06;;;;;;;11.20;7.47;;;;;;;3.41;76.70;95142.75;4177814;28;20121;-51
2022/11/28 07:35:07;;;;;;;10.23;7.63;;;;;;;3.34;76.65;95138.94;4164365;28;20067;-53
2022/11/28 07:37:09;;;;;;;8.77;6.57;;;;;;;3.21;77.56;95138.09;4171328;28;20452;-51
2022/11/28 07:39:12;;;;;;;8.85;6.30;;;;;;;3.05;77.60;95133.97;4150996;28;20498;-51
2022/11/28 07:41:14;;;;;;;8.63;6.65;;;;;;;3.08;77.89;95136.31;4163383;28;20394;-53
2022/11/28 07:43:16;;;;;;;10.45;7.18;;;;;;;3.02;77.68;95135.91;4155805;28;20062;-50
2022/11/28 07:45:18;;;;;;;10.05;7.53;;;;;;;3.16;78.02;95132.38;4157725;28;20127;-54
2022/11/28 07:47:20;;;;;;;10.95;8.07;;;;;;;2.93;78.37;95133.94;4145635;28;20081;-54
2022/11/28 07:49:22;;;;;;;11.70;7.97;;;;;;;2.91;78.34;95136.63;4145436;28;20057;-52
2022/11/28 07:51:27;;;;;;;13.88;9.45;;;;;;;2.94;78.47;95133.81;4159176;28;20612;-51
2022/11/28 07:53:29;;;;;;;12.55;9.43;;;;;;;2.90;78.67;95136.72;4150051;28;20054;-50
2022/11/28 07:55:34;;;;;;;12.98;9.77;;;;;;;3.01;78.79;95131.66;4153580;28;20057;-52
2022/11/28 07:57:35;;;;;;;14.27;10.02;;;;;;;3.02;79.06;95134.16;4156730;28;20257;-49
2022/11/28 07:59:37;;;;;;;16.75;10.40;;;;;;;3.02;78.60;95131.56;4159852;28;20088;-52
2022/11/28 08:01:39;;;;;;;16.88;9.98;;;;;;;2.84;79.05;95133.63;4151984;28;20049;-53
2022/11/28 08:03:41;;;;;;;14.20;9.25;;;;;;;2.96;79.42;95131.97;4162105;28;20088;-51
2022/11/28 08:05:48;;;;;;;15.48;10.20;;;;;;;3.02;79.49;95126.38;4160805;28;20058;-53
2022/11/28 08:07:50;;;;;;;13.70;10.18;;;;;;;3.18;79.19;95127.94;4162809;28;20136;-50
2022/11/28 08:09:51;;;;;;;13.25;9.80;;;;;;;3.25;78.62;95119.66;4162148;28;20053;-49
2022/11/28 08:11:53;;;;;;;18.83;10.77;;;;;;;3.36;78.53;95115.53;4159329;28;20072;-50
2022/11/28 08:13:56;;;;;;;13.98;9.80;;;;;;;3.38;78.08;95117.06;4162178;28;20132;-52
2022/11/28 08:16:13;;;;;;;13.32;9.88;;;;;;;3.41;77.53;95116.03;4151087;28;20053;-51
2022/11/28 08:18:15;;;;;;;15.23;9.57;;;;;;;3.51;77.87;95117.06;4153661;28;20414;-53
2022/11/28 08:20:17;;;;;;;15.15;10.75;;;;;;;3.58;77.50;95123.47;4149572;28;20065;-51
2022/11/28 08:22:18;;;;;;;16.98;11.82;;;;;;;3.72;77.50;95119.06;4148741;28;20548;-52
2022/11/28 08:24:20;;;;;;;19.73;14.45;;;;;;;3.80;76.56;95124.56;4147711;28;20046;-53
2022/11/28 08:26:23;;;;;;;23.45;16.38;;;;;;;3.74;76.42;95119.78;4157351;28;20049;-51
2022/11/28 08:28:30;;;;;;;17.45;12.95;;;;;;;3.63;76.75;95120.53;4162728;28;20187;-51
2022/11/28 08:30:32;;;;;;;18.95;13.60;;;;;;;3.44;77.80;95123.56;4162019;28;20052;-56
2022/11/28 08:32:34;;;;;;;14.38;11.05;;;;;;;3.34;78.33;95122.56;4155027;28;20073;-54
2022/11/28 08:34:36;;;;;;;20.95;11.68;;;;;;;3.35;78.96;95119.84;4147854;28;20064;-55
2022/11/28 08:36:38;;;;;;;27.13;18.90;;;;;;;3.48;78.79;95120.69;4164140;28;20091;-56
2022/11/28 08:38:40;;;;;;;18.42;12.35;;;;;;;3.62;78.22;95109.34;4160279;28;20057;-55
2022/11/28 08:40:47;;;;;;;15.38;10.38;;;;;;;3.76;77.89;95105.78;4165357;28;20568;-55
2022/11/28 08:42:49;;;;;;;16.10;9.98;;;;;;;3.82;77.25;95104.53;4173436;28;20057;-57
2022/11/28 08:44:50;;;;;;;15.10;9.85;;;;;;;3.90;76.57;95110.03;4145655;28;20399;-54
2022/11/28 08:46:52;;;;;;;11.68;9.15;;;;;;;3.85;76.75;95106.91;4147118;28;20123;-54
2022/11/28 08:48:54;;;;;;;12.48;8.32;;;;;;;3.75;76.46;95108.50;4159115;28;20049;-49
2022/11/28 08:50:56;;;;;;;10.73;8.18;;;;;;;3.66;77.11;95102.22;4171067;28;20136;-56
2022/11/28 08:52:57;;;;;;;10.85;8.20;;;;;;;3.47;77.74;95105.25;4176594;28;20058;-54
2022/11/28 08:55:08;;;;;;;11.57;7.90;;;;;;;3.37;78.70;95105.03;4177130;28;20048;-54
2022/11/28 08:57:09;;;;;;;9.52;7.78;;;;;;;3.31;78.17;95107.22;4176902;28;20091;-56
2022/11/28 08:59:11;;;;;;;11.35;8.77;;;;;;;3.26;78.82;95102.34;4163713;28;20053;-53
2022/11/28 09:01:15;;;;;;;12.65;9.40;;;;;;;3.22;78.62;95101.72;4175203;28;20382;-52
2022/11/28 09:03:18;;;;;;;12.25;9.80;;;;;;;3.25;79.19;95091.19;4176838;28;20044;-55
2022/11/28 09:05:19;;;;;;;12.30;9.47;;;;;;;3.37;78.54;95091.25;4177119;28;20501;-57
2022/11/28 09:07:21;;;;;;;11.20;8.88;;;;;;;3.48;78.06;95075.81;4176556;28;20284;-54
2022/11/28 09:09:23;;;;;;;14.40;10.50;;;;;;;3.52;78.12;95082.44;4153280;28;20088;-54
2022/11/28 09:11:30;;;;;;;11.00;8.80;;;;;;;3.64;77.49;95080.75;4168116;28;20058;-56
2022/11/28 09:13:32;;;;;;;11.88;9.40;;;;;;;3.39;77.39;95081.63;4173477;28;20159;-56
2022/11/28 09:15:34;;;;;;;12.40;9.32;;;;;;;3.48;77.44;95075.81;4179004;28;20096;-50
2022/11/28 09:17:36;;;;;;;12.00;9.30;;;;;;;3.40;77.67;95071.19;4174963;28;20046;-53
2022/11/28 09:19:37;;;;;;;12.13;9.25;;;;;;;3.45;78.40;95069.06;4155144;28;20074;-53
2022/11/28 09:21:40;;;;;;;12.52;9.32;;;;;;;3.55;78.38;95066.69;4161963;28;20362;-60
2022/11/28 09:23:43;;;;;;;14.10;9.25;;;;;;;3.38;78.54;95069.63;4165233;28;20110;-55
2022/11/28 09:25:45;;;;;;;10.88;9.13;;;;;;;3.47;78.57;95063.81;4168291;28;20444;-57
2022/11/28 09:27:46;;;;;;;13.38;9.50;;;;;;;3.64;77.93;95058.25;4161772;28;20049;-53
2022/11/28 09:29:48;;;;;;;12.90;9.27;;;;;;;3.58;77.70;95061.28;4162329;28;20059;-58
2022/11/28 09:31:50;;;;;;;12.02;9.40;;;;;;;3.64;78.05;95058.25;4164246;28;20439;-55
2022/11/28 09:33:52;;;;;;;13.98;9.35;;;;;;;3.84;78.33;95056.03;4172175;28;20124;-55
2022/11/28 09:35:54;;;;;;;19.38;9.90;;;;;;;3.88;77.55;95054.88;4162790;28;20448;-56
2022/11/28 09:37:56;;;;;;;10.32;8.15;;;;;;;3.94;76.73;95045.84;4162986;28;20054;-53
2022/11/28 09:39:58;;;;;;;10.23;7.65;;;;;;;3.80;76.95;95041.63;4162132;28;20061;-59
2022/11/28 09:42:34;;;;;;;11.57;7.88;;;;;;;4.02;77.25;95036.56;4145868;28;20050;-55
2022/11/28 09:44:49;;;;;;;9.70;7.15;;;;;;;3.85;76.46;95026.56;4155983;28;20053;-55
2022/11/28 09:46:54;;;;;;;10.10;7.95;;;;;;;3.79;77.12;95027.84;4158731;28;20045;-53
2022/11/28 09:48:59;;;;;;;11.18;8.02;;;;;;;4.04;77.47;95032.09;4145515;28;20447;-54
2022/11/28 09:51:11;;;;;;;12.10;7.47;;;;;;;4.28;76.79;95028.63;4156889;28;20092;-53
2022/11/28 09:53:19;;;;;;;9.10;6.85;;;;;;;4.46;74.97;95024.69;4158961;28;20085;-55
2022/11/28 09:55:30;;;;;;;7.45;5.55;;;;;;;4.64;74.80;95019.06;4152000;28;20041;-57
2022/11/28 09:57:39;;;;;;;6.53;5.18;;;;;;;4.84;73.59;95015.81;4149682;28;20515;-56